createdAt,value
2019-03-08T00:00:20.390Z,99.90
2019-03-08T00:02:49.284Z,99.90
2019-03-08T00:05:19.195Z,99.90
2019-03-08T00:07:48.456Z,99.90
2019-03-08T00:10:17.696Z,99.90
2019-03-08T00:12:47.436Z,99.90
2019-03-08T00:15:16.477Z,99.90
2019-03-08T00:17:45.752Z,99.90
2019-03-08T00:20:14.957Z,99.90
2019-03-08T00:22:44.459Z,99.90
2019-03-08T00:25:14.075Z,99.90
2019-03-08T00:27:42.978Z,99.90
2019-03-08T00:30:12.308Z,99.90
2019-03-08T00:32:41.703Z,99.90
2019-03-08T00:35:11.021Z,99.90
2019-03-08T00:37:39.894Z,99.90
2019-03-08T00:40:08.846Z,99.90
2019-03-08T00:42:38.583Z,99.90
2019-03-08T00:45:08.259Z,99.90
2019-03-08T00:47:38.299Z,99.90
2019-03-08T00:50:07.445Z,99.90
2019-03-08T00:52:36.963Z,99.90
2019-03-08T00:55:06.455Z,99.90
2019-03-08T00:57:35.685Z,99.90
2019-03-08T01:00:09.472Z,99.90
2019-03-08T01:02:38.676Z,99.90
2019-03-08T01:05:08.600Z,99.90
2019-03-08T01:07:37.736Z,99.90
2019-03-08T01:10:09.040Z,99.90
2019-03-08T01:12:38.453Z,99.90
2019-03-08T01:15:08.640Z,99.90
2019-03-08T01:17:38.147Z,99.90
2019-03-08T01:20:08.195Z,99.90
2019-03-08T01:22:37.340Z,99.90
2019-03-08T01:25:06.897Z,99.90
2019-03-08T01:27:36.429Z,99.90
2019-03-08T01:30:07.404Z,99.90
2019-03-08T01:32:36.671Z,99.90
2019-03-08T01:35:06.088Z,99.90
2019-03-08T01:37:35.208Z,99.90
2019-03-08T01:40:05.136Z,99.90
2019-03-08T01:42:33.894Z,99.90
2019-03-08T01:45:03.841Z,99.90
2019-03-08T01:47:33.163Z,99.90
2019-03-08T01:50:02.546Z,99.90
2019-03-08T01:52:31.937Z,99.90
2019-03-08T01:55:01.412Z,99.90
2019-03-08T01:57:30.524Z,99.90
2019-03-08T01:59:59.669Z,99.90
2019-03-08T02:02:29.131Z,99.90
2019-03-08T02:04:57.912Z,99.90
2019-03-08T02:07:27.180Z,99.90
2019-03-08T02:09:56.216Z,99.90
2019-03-08T02:12:25.264Z,99.90
2019-03-08T02:14:54.395Z,99.90
2019-03-08T02:17:23.549Z,99.90
2019-03-08T02:19:52.745Z,99.90
2019-03-08T02:22:23.536Z,99.90
2019-03-08T02:24:53.164Z,99.90
2019-03-08T02:27:22.223Z,99.90
2019-03-08T02:29:51.419Z,99.90
2019-03-08T02:32:21.007Z,99.90
2019-03-08T02:34:50.119Z,99.90
2019-03-08T02:37:19.724Z,99.90
2019-03-08T02:39:48.775Z,99.90
2019-03-08T02:42:17.924Z,99.90
2019-03-08T02:44:47.608Z,99.90
2019-03-08T02:47:16.723Z,99.90
2019-03-08T02:49:45.826Z,99.90
2019-03-08T02:52:15.447Z,99.90
2019-03-08T02:54:44.596Z,99.90
2019-03-08T02:57:13.424Z,99.90
2019-03-08T02:59:42.892Z,99.90
2019-03-08T03:02:12.307Z,99.90
2019-03-08T03:04:41.600Z,99.90
2019-03-08T03:07:11.123Z,99.90
2019-03-08T03:09:40.192Z,99.90
2019-03-08T03:12:11.450Z,99.90
2019-03-08T03:14:40.223Z,99.90
2019-03-08T03:17:09.548Z,99.90
2019-03-08T03:19:38.857Z,99.90
2019-03-08T03:22:08.259Z,99.90
2019-03-08T03:24:37.308Z,99.90
2019-03-08T03:27:06.224Z,99.90
2019-03-08T03:29:35.561Z,99.90
2019-03-08T03:32:04.682Z,99.90
2019-03-08T03:34:33.776Z,99.90
2019-03-08T03:37:02.843Z,99.90
2019-03-08T03:39:32.121Z,99.90
2019-03-08T03:42:01.167Z,99.90
2019-03-08T03:44:29.998Z,99.90
2019-03-08T03:46:59.339Z,99.90
2019-03-08T03:49:28.472Z,99.90
2019-03-08T03:51:57.846Z,99.90
2019-03-08T03:54:26.984Z,99.90
2019-03-08T03:56:56.301Z,99.90
2019-03-08T03:59:25.184Z,99.90
2019-03-08T04:01:54.312Z,99.90
2019-03-08T04:04:23.626Z,99.90
2019-03-08T04:06:52.687Z,99.90
2019-03-08T04:09:21.894Z,99.90
2019-03-08T04:11:50.932Z,99.90
2019-03-08T04:14:21.025Z,99.90
2019-03-08T04:16:50.688Z,99.90
2019-03-08T04:19:20.071Z,99.90
2019-03-08T04:21:49.446Z,99.90
2019-03-08T04:24:18.231Z,99.90
2019-03-08T04:26:47.412Z,99.90
2019-03-08T04:29:16.465Z,99.90
2019-03-08T04:31:45.626Z,99.90
2019-03-08T04:34:14.599Z,99.90
2019-03-08T04:36:43.531Z,99.90
2019-03-08T04:39:12.895Z,99.90
2019-03-08T04:41:41.943Z,99.90
2019-03-08T04:44:11.235Z,99.90
2019-03-08T04:46:40.588Z,99.90
2019-03-08T04:49:09.976Z,99.90
2019-03-08T04:51:39.020Z,99.90
2019-03-08T04:54:08.453Z,99.90
2019-03-08T04:56:37.853Z,99.90
2019-03-08T04:59:06.964Z,99.90
2019-03-08T05:01:35.888Z,99.90
2019-03-08T05:04:05.569Z,99.90
2019-03-08T05:06:34.687Z,99.90
2019-03-08T05:09:05.160Z,99.90
2019-03-08T05:11:34.363Z,99.90
2019-03-08T05:14:03.628Z,99.90
2019-03-08T05:16:32.979Z,99.90
2019-03-08T05:19:02.032Z,99.90
2019-03-08T05:21:31.138Z,99.90
2019-03-08T05:24:00.179Z,99.90
2019-03-08T05:26:29.659Z,99.90
2019-03-08T05:28:58.885Z,99.90
2019-03-08T05:31:27.916Z,99.90
2019-03-08T05:33:57.197Z,99.90
2019-03-08T05:36:26.475Z,99.90
2019-03-08T05:38:55.599Z,99.90
2019-03-08T05:41:24.968Z,99.90
2019-03-08T05:43:54.268Z,99.90
2019-03-08T05:46:23.534Z,99.90
2019-03-08T05:48:52.588Z,99.90
2019-03-08T05:51:21.703Z,99.90
2019-03-08T05:53:51.266Z,99.90
2019-03-08T05:56:20.145Z,99.90
2019-03-08T05:58:49.299Z,99.90
2019-03-08T06:01:18.700Z,99.90
2019-03-08T06:03:47.470Z,99.90
2019-03-08T06:06:17.181Z,99.90
2019-03-08T06:08:46.978Z,99.90
2019-03-08T06:11:15.787Z,99.90
2019-03-08T06:13:44.879Z,99.90
2019-03-08T06:16:13.864Z,99.90
2019-03-08T06:18:43.015Z,99.90
2019-03-08T06:21:12.322Z,99.90
2019-03-08T06:23:41.784Z,99.90
2019-03-08T06:26:10.820Z,99.90
2019-03-08T06:28:39.828Z,99.90
2019-03-08T06:31:08.883Z,99.90
2019-03-08T06:33:37.898Z,99.90
2019-03-08T06:36:06.795Z,99.90
2019-03-08T06:38:36.571Z,99.90
2019-03-08T06:41:05.328Z,99.90
2019-03-08T06:43:34.931Z,99.90
2019-03-08T06:46:04.064Z,99.90
2019-03-08T06:48:33.106Z,99.90
2019-03-08T06:51:02.212Z,99.90
2019-03-08T06:53:31.361Z,99.90
2019-03-08T06:56:00.460Z,99.90
2019-03-08T06:58:51.427Z,99.90
2019-03-08T07:01:23.993Z,99.90
2019-03-08T07:03:53.336Z,99.90
2019-03-08T07:06:22.692Z,99.90
2019-03-08T07:08:51.737Z,99.90
2019-03-08T07:11:21.040Z,99.90
2019-03-08T07:13:50.108Z,99.90
2019-03-08T07:16:19.124Z,99.90
2019-03-08T07:18:48.140Z,99.90
2019-03-08T07:21:25.323Z,99.90
2019-03-08T07:24:25.320Z,99.90
2019-03-08T07:27:22.930Z,99.90
2019-03-08T07:30:10.055Z,99.90
2019-03-08T07:32:51.672Z,99.90
2019-03-08T07:35:43.397Z,99.90
2019-03-08T07:38:26.327Z,99.90
2019-03-08T07:41:22.953Z,99.90
2019-03-08T07:44:10.130Z,99.90
2019-03-08T07:46:56.924Z,99.90
2019-03-08T07:49:41.412Z,99.90
2019-03-08T07:52:28.019Z,99.90
2019-03-08T07:55:16.143Z,99.90
2019-03-08T07:57:59.105Z,99.90
2019-03-08T08:00:39.030Z,99.90
2019-03-08T08:03:30.080Z,99.90
2019-03-08T08:06:23.022Z,99.90
2019-03-08T08:08:57.617Z,99.90
2019-03-08T08:12:04.190Z,99.90
2019-03-08T08:15:07.664Z,99.90
2019-03-08T08:17:46.024Z,99.90
2019-03-08T08:20:45.900Z,99.90
2019-03-08T08:23:24.266Z,99.90
2019-03-08T08:26:08.055Z,99.90
2019-03-08T08:28:50.302Z,99.90
2019-03-08T08:31:41.308Z,99.90
2019-03-08T08:34:18.900Z,99.90
2019-03-08T08:36:57.219Z,99.90
2019-03-08T08:39:35.613Z,99.90
2019-03-08T08:42:24.033Z,99.90
2019-03-08T08:45:03.818Z,99.90
2019-03-08T08:47:43.260Z,99.90
2019-03-08T08:50:21.860Z,99.90
2019-03-08T08:53:09.752Z,99.90
2019-03-08T08:55:56.209Z,99.90
2019-03-08T08:58:44.336Z,99.90
2019-03-08T09:01:44.458Z,99.90
2019-03-08T09:04:31.328Z,99.90
2019-03-08T09:07:18.699Z,99.90
2019-03-08T09:10:02.622Z,99.90
2019-03-08T09:12:47.404Z,99.90
2019-03-08T09:15:29.519Z,99.90
2019-03-08T09:18:10.988Z,99.90
2019-03-08T09:20:52.443Z,99.90
2019-03-08T09:23:37.087Z,99.90
2019-03-08T09:26:24.395Z,99.90
2019-03-08T09:29:09.327Z,99.90
2019-03-08T09:32:00.051Z,99.90
2019-03-08T09:35:00.435Z,99.90
2019-03-08T09:37:36.508Z,99.90
2019-03-08T09:40:25.423Z,99.90
2019-03-08T09:43:23.342Z,99.90
2019-03-08T09:46:23.616Z,99.90
2019-03-08T09:49:17.767Z,99.70
2019-03-08T09:51:57.588Z,99.90
2019-03-08T09:54:32.367Z,99.90
2019-03-08T09:57:16.372Z,99.90
2019-03-08T10:00:14.279Z,99.90
2019-03-08T10:02:53.372Z,99.90
2019-03-08T10:05:47.809Z,99.90
2019-03-08T10:08:29.857Z,99.90
2019-03-08T10:11:21.106Z,99.90
2019-03-08T10:14:15.107Z,99.90
2019-03-08T10:16:51.713Z,99.90
2019-03-08T10:19:39.199Z,99.90
2019-03-08T10:22:26.837Z,99.90
2019-03-08T10:25:03.785Z,99.90
2019-03-08T10:28:10.415Z,99.90
2019-03-08T10:30:47.069Z,99.90
2019-03-08T10:33:24.508Z,99.90
2019-03-08T10:36:27.870Z,99.90
2019-03-08T10:39:03.158Z,99.90
2019-03-08T10:41:54.211Z,99.90
2019-03-08T10:44:42.083Z,99.90
2019-03-08T10:47:22.520Z,99.90
2019-03-08T10:50:00.145Z,99.90
2019-03-08T10:52:39.931Z,99.90
2019-03-08T10:55:37.826Z,99.90
2019-03-08T10:58:24.896Z,99.90
2019-03-08T11:01:09.207Z,99.90
2019-03-08T11:03:55.147Z,99.90
2019-03-08T11:06:40.263Z,99.90
2019-03-08T11:09:32.796Z,99.90
2019-03-08T11:12:25.052Z,99.90
2019-03-08T11:15:13.238Z,99.90
2019-03-08T11:18:04.587Z,99.90
2019-03-08T11:21:07.910Z,99.90
2019-03-08T11:23:43.036Z,99.90
2019-03-08T11:26:22.532Z,99.90
2019-03-08T11:29:17.038Z,99.30
2019-03-08T11:32:22.822Z,99.00
2019-03-08T11:34:55.096Z,99.70
2019-03-08T11:37:41.283Z,99.20
2019-03-08T11:40:33.404Z,98.30
2019-03-08T11:43:10.419Z,99.00
2019-03-08T11:45:52.080Z,99.50
2019-03-08T11:48:36.032Z,99.60
2019-03-08T11:51:29.239Z,99.60
2019-03-08T11:54:11.764Z,99.90
2019-03-08T11:57:09.074Z,99.90
2019-03-08T11:59:56.089Z,99.90
2019-03-08T12:02:53.568Z,99.90
2019-03-08T12:05:44.388Z,99.30
2019-03-08T12:08:30.877Z,98.80
2019-03-08T12:11:33.201Z,99.90
2019-03-08T12:14:24.266Z,99.60
2019-03-08T12:17:03.845Z,99.40
2019-03-08T12:19:41.669Z,99.20
2019-03-08T12:22:35.921Z,99.20
2019-03-08T12:25:20.463Z,98.50
2019-03-08T12:28:07.661Z,98.50
2019-03-08T12:30:47.767Z,98.00
2019-03-08T12:33:32.240Z,97.10
2019-03-08T12:36:23.433Z,98.20
2019-03-08T12:39:07.020Z,98.10
2019-03-08T12:41:47.103Z,98.20
2019-03-08T12:44:31.312Z,97.50
2019-03-08T12:47:32.883Z,98.20
2019-03-08T12:50:21.349Z,98.50
2019-03-08T12:53:08.728Z,98.50
2019-03-08T12:55:49.788Z,98.70
2019-03-08T12:58:47.275Z,99.30
2019-03-08T13:01:26.130Z,99.90
2019-03-08T13:04:23.623Z,99.30
2019-03-08T13:07:15.216Z,99.70
2019-03-08T13:09:50.276Z,99.90
2019-03-08T13:12:19.601Z,99.90
2019-03-08T13:14:49.072Z,99.90
2019-03-08T13:17:18.645Z,99.90
2019-03-08T13:19:47.836Z,99.90
2019-03-08T13:22:17.020Z,99.90
2019-03-08T13:24:46.096Z,99.90
2019-03-08T13:27:15.516Z,99.90
2019-03-08T13:29:44.657Z,99.90
2019-03-08T13:32:13.770Z,99.90
2019-03-08T13:34:43.370Z,99.90
2019-03-08T13:37:12.500Z,99.90
2019-03-08T13:39:41.621Z,99.90
2019-03-08T13:42:10.408Z,99.90
2019-03-08T13:44:39.496Z,99.90
2019-03-08T13:47:08.620Z,99.90
2019-03-08T13:49:37.694Z,99.90
2019-03-08T13:52:07.216Z,99.90
2019-03-08T13:54:36.336Z,99.90
2019-03-08T13:57:05.585Z,99.90
2019-03-08T13:59:34.680Z,99.90
2019-03-08T14:02:04.084Z,99.90
2019-03-08T14:04:33.375Z,99.90
2019-03-08T14:07:02.926Z,99.90
2019-03-08T14:09:31.755Z,99.90
2019-03-08T14:12:02.227Z,99.90
2019-03-08T14:14:31.483Z,99.90
2019-03-08T14:17:00.665Z,99.90
2019-03-08T14:19:29.793Z,99.90
2019-03-08T14:21:59.095Z,99.90
2019-03-08T14:24:27.850Z,99.90
2019-03-08T14:26:56.644Z,99.90
2019-03-08T14:29:25.729Z,99.90
2019-03-08T14:32:00.199Z,99.90
2019-03-08T14:34:29.173Z,99.90
2019-03-08T14:36:58.284Z,99.90
2019-03-08T14:39:29.527Z,99.90
2019-03-08T14:42:16.769Z,99.90
2019-03-08T14:45:17.107Z,99.90
2019-03-08T14:47:51.937Z,99.90
2019-03-08T14:50:21.353Z,99.90
2019-03-08T14:52:50.184Z,99.90
2019-03-08T14:55:22.644Z,99.90
2019-03-08T14:57:49.954Z,99.90
2019-03-08T15:00:21.249Z,99.90
2019-03-08T15:02:50.500Z,99.90
2019-03-08T15:05:20.446Z,99.90
2019-03-08T15:07:50.116Z,99.90
2019-03-08T15:10:20.132Z,99.90
2019-03-08T15:12:49.628Z,99.90
2019-03-08T15:15:19.224Z,99.90
2019-03-08T15:17:49.724Z,99.90
2019-03-08T15:20:19.065Z,99.90
2019-03-08T15:22:48.609Z,99.90
2019-03-08T15:25:17.528Z,99.90
2019-03-08T15:27:46.597Z,99.90
2019-03-08T15:30:16.778Z,99.90
2019-03-08T15:32:49.071Z,99.90
2019-03-08T15:35:18.741Z,99.90
2019-03-08T15:37:48.067Z,99.90
2019-03-08T15:40:18.605Z,99.90
2019-03-08T15:42:47.709Z,99.90
2019-03-08T15:45:17.104Z,99.90
2019-03-08T15:47:46.856Z,99.90
2019-03-08T15:50:16.603Z,99.90
2019-03-08T15:52:46.644Z,99.90
2019-03-08T15:55:15.827Z,99.90
2019-03-08T15:57:44.940Z,99.90
2019-03-08T16:00:16.262Z,99.90
2019-03-08T16:02:45.625Z,99.90
2019-03-08T16:05:14.781Z,99.90
2019-03-08T16:07:43.955Z,99.90
2019-03-08T16:10:13.864Z,99.90
2019-03-08T16:12:43.668Z,99.90
2019-03-08T16:15:13.132Z,99.90
2019-03-08T16:17:42.836Z,99.90
2019-03-08T16:20:13.500Z,99.90
2019-03-08T16:22:42.990Z,99.90
2019-03-08T16:25:12.561Z,99.90
2019-03-08T16:27:43.427Z,99.90
2019-03-08T16:30:16.792Z,99.90
2019-03-08T16:33:08.758Z,99.90
2019-03-08T16:35:44.054Z,99.90
2019-03-08T16:38:18.808Z,99.90
2019-03-08T16:41:02.021Z,99.90
2019-03-08T16:43:46.704Z,99.90
2019-03-08T16:46:33.613Z,99.90
2019-03-08T16:49:14.654Z,99.90
2019-03-08T16:52:08.189Z,99.90
2019-03-08T16:54:46.806Z,99.90
2019-03-08T16:57:29.149Z,99.90
2019-03-08T17:00:20.362Z,99.90
2019-03-08T17:03:07.062Z,99.90
2019-03-08T17:05:53.910Z,99.90
2019-03-08T17:08:28.144Z,99.90
2019-03-08T17:11:08.837Z,99.90
2019-03-08T17:13:48.230Z,99.90
2019-03-08T17:16:34.942Z,99.90
2019-03-08T17:19:12.157Z,99.90
2019-03-08T17:21:47.083Z,99.90
2019-03-08T17:24:34.167Z,99.90
2019-03-08T17:27:13.262Z,99.90
2019-03-08T17:30:01.135Z,99.90
2019-03-08T17:32:49.305Z,99.90
2019-03-08T17:35:46.625Z,99.90
2019-03-08T17:38:24.061Z,99.90
2019-03-08T17:41:00.991Z,99.90
2019-03-08T17:43:52.273Z,99.90
2019-03-08T17:46:43.163Z,99.90
2019-03-08T17:49:37.334Z,99.90
2019-03-08T17:52:30.509Z,99.90
2019-03-08T17:55:21.582Z,99.90
2019-03-08T17:58:12.625Z,99.90
2019-03-08T18:00:48.408Z,99.90
2019-03-08T18:03:23.025Z,99.90
2019-03-08T18:06:14.219Z,99.90
2019-03-08T18:08:49.439Z,99.90
2019-03-08T18:11:37.513Z,99.90
2019-03-08T18:14:29.549Z,99.90
2019-03-08T18:17:13.150Z,99.90
2019-03-08T18:19:53.681Z,99.90
2019-03-08T18:22:40.568Z,99.90
2019-03-08T18:25:23.632Z,99.90
2019-03-08T18:28:03.225Z,99.90
2019-03-08T18:30:50.137Z,99.90
2019-03-08T18:33:47.266Z,99.90
2019-03-08T18:36:35.309Z,99.90
2019-03-08T18:39:21.653Z,99.90
2019-03-08T18:42:12.592Z,99.90
2019-03-08T18:45:06.694Z,99.90
2019-03-08T18:47:54.598Z,99.90
2019-03-08T18:50:45.785Z,99.90
2019-03-08T18:53:33.037Z,99.90
2019-03-08T18:56:21.454Z,99.90
2019-03-08T18:59:03.873Z,99.90
2019-03-08T19:02:02.593Z,99.90
2019-03-08T19:04:43.125Z,99.90
2019-03-08T19:07:30.420Z,99.90
2019-03-08T19:10:11.566Z,99.90
2019-03-08T19:12:48.149Z,99.90
2019-03-08T19:15:42.032Z,99.90
2019-03-08T19:18:25.954Z,99.90
2019-03-08T19:21:02.723Z,99.90
2019-03-08T19:23:36.514Z,99.90
2019-03-08T19:26:22.874Z,99.90
2019-03-08T19:28:56.962Z,99.90
2019-03-08T19:32:04.123Z,99.90
2019-03-08T19:34:55.713Z,99.90
2019-03-08T19:37:59.968Z,99.90
2019-03-08T19:40:36.498Z,99.90
2019-03-08T19:43:24.800Z,99.90
2019-03-08T19:46:09.634Z,99.90
2019-03-08T19:48:56.679Z,99.90
2019-03-08T19:51:44.904Z,99.90
2019-03-08T19:54:24.660Z,99.90
2019-03-08T19:57:12.313Z,99.90
2019-03-08T20:00:03.701Z,99.90
2019-03-08T20:02:45.075Z,99.90
2019-03-08T20:05:51.425Z,99.90
2019-03-08T20:08:38.409Z,99.90
2019-03-08T20:11:29.482Z,99.90
2019-03-08T20:14:33.675Z,99.90
2019-03-08T20:17:26.969Z,99.90
2019-03-08T20:20:15.789Z,99.90
2019-03-08T20:23:04.120Z,99.90
2019-03-08T20:25:51.345Z,99.90
2019-03-08T20:28:51.294Z,99.90
2019-03-08T20:31:48.693Z,99.90
2019-03-08T20:34:39.642Z,99.90
2019-03-08T20:37:18.395Z,99.90
2019-03-08T20:40:11.686Z,99.90
2019-03-08T20:42:46.260Z,99.90
2019-03-08T20:45:33.529Z,99.90
2019-03-08T20:48:02.941Z,99.90
2019-03-08T20:50:32.415Z,99.90
2019-03-08T20:53:01.513Z,99.90
2019-03-08T20:55:30.837Z,99.90
2019-03-08T20:58:00.560Z,99.90
2019-03-08T21:00:32.171Z,99.90
2019-03-08T21:03:01.478Z,99.90
2019-03-08T21:05:30.934Z,99.90
2019-03-08T21:07:59.828Z,99.90
2019-03-08T21:10:30.471Z,99.90
2019-03-08T21:12:59.924Z,99.90
2019-03-08T21:15:28.803Z,99.90
2019-03-08T21:17:58.287Z,99.90
2019-03-08T21:20:27.438Z,99.90
2019-03-08T21:22:56.263Z,99.90
2019-03-08T21:25:25.238Z,99.90
2019-03-08T21:27:54.528Z,99.90
2019-03-08T21:30:23.457Z,99.90
2019-03-08T21:32:52.781Z,99.90
2019-03-08T21:35:22.113Z,99.90
2019-03-08T21:37:51.045Z,99.90
2019-03-08T21:40:20.028Z,99.90
2019-03-08T21:42:49.337Z,99.90
2019-03-08T21:45:18.463Z,99.90
2019-03-08T21:47:47.826Z,99.90
2019-03-08T21:50:17.074Z,99.90
2019-03-08T21:52:46.126Z,99.90
2019-03-08T21:55:15.174Z,99.90
2019-03-08T21:57:44.227Z,99.90
2019-03-08T22:00:16.187Z,99.90
2019-03-08T22:02:45.332Z,99.90
2019-03-08T22:05:15.611Z,99.90
2019-03-08T22:07:44.591Z,99.90
2019-03-08T22:10:21.671Z,99.90
2019-03-08T22:12:50.745Z,99.90
2019-03-08T22:15:20.074Z,99.90
2019-03-08T22:17:49.193Z,99.90
2019-03-08T22:20:18.153Z,99.90
2019-03-08T22:22:47.097Z,99.90
2019-03-08T22:25:16.124Z,99.90
2019-03-08T22:27:45.379Z,99.90
2019-03-08T22:30:15.689Z,99.90
2019-03-08T22:32:44.511Z,99.90
2019-03-08T22:35:13.543Z,99.90
2019-03-08T22:37:42.691Z,99.90
2019-03-08T22:40:11.895Z,99.90
2019-03-08T22:42:40.933Z,99.90
2019-03-08T22:45:10.734Z,99.90
2019-03-08T22:47:39.690Z,99.90
2019-03-08T22:50:08.903Z,99.90
2019-03-08T22:52:38.495Z,99.90
2019-03-08T22:55:08.678Z,99.90
2019-03-08T22:57:37.555Z,99.90
2019-03-08T23:00:25.562Z,99.90
2019-03-08T23:02:54.656Z,99.90
2019-03-08T23:05:23.935Z,99.90
2019-03-08T23:07:53.119Z,99.90
2019-03-08T23:10:22.478Z,99.90
2019-03-08T23:12:51.747Z,99.90
2019-03-08T23:15:20.883Z,99.90
2019-03-08T23:17:50.435Z,99.90
2019-03-08T23:20:19.726Z,99.90
2019-03-08T23:22:48.650Z,99.90
2019-03-08T23:25:19.477Z,99.90
2019-03-08T23:27:53.887Z,99.90
2019-03-08T23:30:29.090Z,99.90
2019-03-08T23:32:58.026Z,99.90
2019-03-08T23:35:26.891Z,99.90
2019-03-08T23:37:56.527Z,99.90
2019-03-08T23:40:25.630Z,99.90
2019-03-08T23:42:54.799Z,99.90
2019-03-08T23:45:23.728Z,99.90
2019-03-08T23:47:52.864Z,99.90
2019-03-08T23:50:21.837Z,99.90
2019-03-08T23:52:50.995Z,99.90
2019-03-08T23:55:20.026Z,99.90
2019-03-08T23:57:49.283Z,99.90
